Time;durP1;ratioP1;P1;durP2;ratioP2;P2;SDS_P1;SDS_P2;PMS_P1;PMS_P2;Temp;Humidity;BMP_temperature;BMP_pressure;BME280_temperature;BME280_humidity;BME280_pressure;Samples;Min_cycle;Max_cycle;Signal;HPM_P1;HPM_P2
2021/05/01 00:01:55;;;;;;;;;;;7.30;99.90;;;;;;8292912;28;19911;-66
2021/05/01 00:05:56;;;;;;;;;;;7.50;99.90;;;;;;8293499;28;19905;-66
2021/05/01 00:09:56;;;;;;;;;;;7.40;99.90;;;;;;8292806;28;19920;-66
2021/05/01 00:13:58;;;;;;;;;;;7.20;99.90;;;;;;8292805;28;19905;-66
2021/05/01 00:17:58;;;;;;;;;;;7.20;99.90;;;;;;8293261;28;19959;-66
2021/05/01 00:21:59;;;;;;;;;;;7.30;99.90;;;;;;8292600;28;19931;-66
2021/05/01 00:25:59;;;;;;;;;;;7.50;99.90;;;;;;8291910;28;19905;-66
2021/05/01 00:30:00;;;;;;;;;;;7.40;99.90;;;;;;8292886;28;19910;-66
2021/05/01 00:34:01;;;;;;;;;;;7.40;99.90;;;;;;8292213;28;20016;-66
2021/05/01 00:38:01;;;;;;;;;;;7.40;99.90;;;;;;8292967;28;20485;-66
2021/05/01 00:42:02;;;;;;;;;;;7.40;99.90;;;;;;8274627;28;19905;-66
2021/05/01 00:46:04;;;;;;;;;;;8.00;99.90;;;;;;8292579;28;20009;-65
2021/05/01 00:50:05;;;;;;;;;;;7.80;99.90;;;;;;8292576;28;19949;-66
2021/05/01 00:54:06;;;;;;;;;;;7.70;99.90;;;;;;8291932;28;19912;-66
2021/05/01 00:58:06;;;;;;;;;;;7.50;99.90;;;;;;8291914;28;19906;-66
2021/05/01 01:02:07;;;;;;;;;;;7.80;99.90;;;;;;8292189;28;20426;-66
2021/05/01 01:06:08;;;;;;;;;;;7.60;99.90;;;;;;8292056;28;19906;-66
2021/05/01 01:10:09;;;;;;;;;;;7.40;99.90;;;;;;8293597;28;20000;-66
2021/05/01 01:14:13;;;;;;;;;;;7.30;99.90;;;;;;8297731;28;19952;-66
2021/05/01 01:18:13;;;;;;;;;;;7.20;99.90;;;;;;8298207;28;19955;-66
2021/05/01 01:22:17;;;;;;;;;;;7.20;99.90;;;;;;8297824;28;19905;-66
2021/05/01 01:26:17;;;;;;;;;;;7.20;99.90;;;;;;8296990;28;19905;-65
2021/05/01 01:30:23;;;;;;;;;;;7.10;99.90;;;;;;8297866;28;19910;-66
2021/05/01 01:34:23;;;;;;;;;;;7.20;99.90;;;;;;8272270;28;19913;-66
2021/05/01 01:38:24;;;;;;;;;;;7.30;99.90;;;;;;8263415;28;19913;-67
2021/05/01 01:42:24;;;;;;;;;;;7.50;99.90;;;;;;8264366;28;19941;-66
2021/05/01 01:46:25;;;;;;;;;;;7.40;99.90;;;;;;8264564;28;19909;-66
2021/05/01 01:50:26;;;;;;;;;;;7.40;99.90;;;;;;8264710;28;19910;-66
2021/05/01 01:54:26;;;;;;;;;;;7.50;99.90;;;;;;8264469;28;19905;-65
2021/05/01 01:58:27;;;;;;;;;;;7.50;99.90;;;;;;8264489;28;20000;-66
2021/05/01 02:02:27;;;;;;;;;;;7.60;99.90;;;;;;8263941;28;19995;-66
2021/05/01 02:06:28;;;;;;;;;;;7.60;99.90;;;;;;8263986;28;19910;-66
2021/05/01 02:10:28;;;;;;;;;;;7.50;99.90;;;;;;8264128;28;19953;-66
2021/05/01 02:14:29;;;;;;;;;;;7.50;99.90;;;;;;8264157;28;20321;-65
2021/05/01 02:18:30;;;;;;;;;;;7.70;99.90;;;;;;8264346;28;20368;-65
2021/05/01 02:22:30;;;;;;;;;;;7.70;99.90;;;;;;8262419;28;19930;-65
2021/05/01 02:26:31;;;;;;;;;;;7.60;99.90;;;;;;8264237;28;20025;-66
2021/05/01 02:30:31;;;;;;;;;;;7.50;99.90;;;;;;8263611;28;19905;-66
2021/05/01 02:34:32;;;;;;;;;;;7.50;99.90;;;;;;8263104;28;20365;-66
2021/05/01 02:38:33;;;;;;;;;;;7.40;99.90;;;;;;8263378;28;19909;-66
2021/05/01 02:42:33;;;;;;;;;;;7.40;99.90;;;;;;8263346;28;19909;-66
2021/05/01 02:46:34;;;;;;;;;;;7.50;99.90;;;;;;8262649;28;19909;-66
2021/05/01 02:50:34;;;;;;;;;;;7.50;99.90;;;;;;8262262;28;19928;-66
2021/05/01 02:54:34;;;;;;;;;;;7.60;99.90;;;;;;8263144;28;19968;-66
2021/05/01 02:58:35;;;;;;;;;;;7.60;99.90;;;;;;8262256;28;19933;-65
2021/05/01 03:02:35;;;;;;;;;;;7.60;99.90;;;;;;8262217;28;19968;-66
2021/05/01 03:06:36;;;;;;;;;;;7.60;99.90;;;;;;8262472;28;19917;-66
2021/05/01 03:10:36;;;;;;;;;;;7.40;99.90;;;;;;8261978;28;20602;-66
2021/05/01 03:14:37;;;;;;;;;;;7.50;99.90;;;;;;8261726;28;20026;-66
2021/05/01 03:18:37;;;;;;;;;;;7.50;99.90;;;;;;8262169;28;19929;-66
2021/05/01 03:22:38;;;;;;;;;;;7.50;99.90;;;;;;8261165;28;20497;-66
2021/05/01 03:26:39;;;;;;;;;;;7.40;99.90;;;;;;8260189;28;20424;-66
2021/05/01 03:30:39;;;;;;;;;;;7.50;99.90;;;;;;8259233;28;19905;-66
2021/05/01 03:34:40;;;;;;;;;;;7.70;99.90;;;;;;8260554;28;19906;-66
2021/05/01 03:38:40;;;;;;;;;;;7.60;99.90;;;;;;8262030;28;20538;-66
2021/05/01 03:42:41;;;;;;;;;;;7.60;99.90;;;;;;8260744;28;19905;-65
2021/05/01 03:46:41;;;;;;;;;;;7.50;99.90;;;;;;8261233;28;19910;-65
2021/05/01 03:50:42;;;;;;;;;;;7.40;99.90;;;;;;8260622;28;19917;-65
2021/05/01 03:54:42;;;;;;;;;;;7.40;99.90;;;;;;8261084;28;19960;-65
2021/05/01 03:58:43;;;;;;;;;;;7.40;99.90;;;;;;8261155;28;20539;-65
2021/05/01 04:02:43;;;;;;;;;;;7.60;99.90;;;;;;8260211;28;19917;-66
2021/05/01 04:06:43;;;;;;;;;;;7.70;99.90;;;;;;8260798;28;19909;-66
2021/05/01 04:10:44;;;;;;;;;;;7.50;99.90;;;;;;8260783;28;19914;-66
2021/05/01 04:14:44;;;;;;;;;;;7.60;99.90;;;;;;8260840;28;19944;-66
2021/05/01 04:18:45;;;;;;;;;;;7.50;99.90;;;;;;8261363;28;19992;-66
2021/05/01 04:22:46;;;;;;;;;;;7.50;99.90;;;;;;8260028;28;19912;-65
2021/05/01 04:26:47;;;;;;;;;;;7.50;99.90;;;;;;8260873;28;19906;-66
2021/05/01 04:30:47;;;;;;;;;;;7.50;99.90;;;;;;8260966;28;19906;-66
2021/05/01 04:34:48;;;;;;;;;;;7.40;99.90;;;;;;8260792;28;19996;-66
2021/05/01 04:38:48;;;;;;;;;;;7.40;99.90;;;;;;8261306;28;19910;-65
2021/05/01 04:42:51;;;;;;;;;;;7.40;99.90;;;;;;8262310;28;19964;-66
2021/05/01 04:46:52;;;;;;;;;;;7.50;99.90;;;;;;8296402;28;19913;-66
2021/05/01 04:50:53;;;;;;;;;;;7.60;99.90;;;;;;8299243;28;20148;-66
2021/05/01 04:54:53;;;;;;;;;;;7.80;99.90;;;;;;8286588;28;19917;-65
2021/05/01 04:58:54;;;;;;;;;;;7.90;99.90;;;;;;8281644;28;20277;-66
2021/05/01 05:02:55;;;;;;;;;;;7.80;99.90;;;;;;8288449;28;19909;-66
2021/05/01 05:06:55;;;;;;;;;;;7.70;99.90;;;;;;8277486;28;19998;-65
2021/05/01 05:10:56;;;;;;;;;;;7.70;99.90;;;;;;8277713;28;19914;-66
2021/05/01 05:14:56;;;;;;;;;;;7.70;99.90;;;;;;8279836;28;20474;-66
2021/05/01 05:18:57;;;;;;;;;;;7.60;99.90;;;;;;8285763;28;20295;-65
2021/05/01 05:22:57;;;;;;;;;;;7.60;99.90;;;;;;8281248;28;20405;-63
2021/05/01 05:26:58;;;;;;;;;;;7.70;99.90;;;;;;8277283;28;19913;-64
2021/05/01 05:30:58;;;;;;;;;;;7.70;99.90;;;;;;8276331;28;19918;-64
2021/05/01 05:34:59;;;;;;;;;;;7.90;99.90;;;;;;8279204;28;19916;-63
2021/05/01 05:38:59;;;;;;;;;;;7.90;99.90;;;;;;8271996;28;19960;-63
2021/05/01 05:43:01;;;;;;;;;;;8.00;99.90;;;;;;8272868;28;19913;-63
2021/05/01 05:47:01;;;;;;;;;;;8.00;99.90;;;;;;8260097;28;19921;-63
2021/05/01 05:51:02;;;;;;;;;;;8.00;99.90;;;;;;8277158;28;19953;-64
2021/05/01 05:55:03;;;;;;;;;;;8.00;99.90;;;;;;8278879;28;20284;-64
2021/05/01 05:59:03;;;;;;;;;;;8.10;99.90;;;;;;8279348;28;19910;-64
2021/05/01 06:03:04;;;;;;;;;;;8.20;99.90;;;;;;8279646;28;19956;-63
2021/05/01 06:07:10;;;;;;;;;;;8.20;99.90;;;;;;8279456;28;19910;-64
2021/05/01 06:11:11;;;;;;;;;;;8.20;99.90;;;;;;8279044;28;19974;-63
2021/05/01 06:15:16;;;;;;;;;;;8.30;99.90;;;;;;8281821;28;20427;-63
2021/05/01 06:19:17;;;;;;;;;;;8.40;99.90;;;;;;8280149;28;19912;-64
2021/05/01 06:23:18;;;;;;;;;;;8.40;99.90;;;;;;8278453;28;19909;-63
2021/05/01 06:27:19;;;;;;;;;;;8.40;99.90;;;;;;8277582;28;19917;-64
2021/05/01 06:31:19;;;;;;;;;;;8.40;99.90;;;;;;8278800;28;19910;-63
2021/05/01 06:35:20;;;;;;;;;;;8.60;99.90;;;;;;8283612;28;19915;-69
2021/05/01 06:39:23;;;;;;;;;;;8.60;99.90;;;;;;8295619;28;20368;-69
2021/05/01 06:43:24;;;;;;;;;;;8.50;99.90;;;;;;8277449;28;19909;-69
2021/05/01 06:47:26;;;;;;;;;;;8.50;99.90;;;;;;8264539;28;19913;-69
2021/05/01 06:51:27;;;;;;;;;;;8.40;99.90;;;;;;8260171;28;19910;-63
2021/05/01 06:55:29;;;;;;;;;;;8.60;99.90;;;;;;8272102;28;19916;-63
2021/05/01 06:59:30;;;;;;;;;;;9.50;99.90;;;;;;8276314;28;19956;-63
2021/05/01 07:03:31;;;;;;;;;;;9.80;99.90;;;;;;8275135;28;20364;-63
2021/05/01 07:07:32;;;;;;;;;;;10.20;99.90;;;;;;8272693;28;19913;-63
2021/05/01 07:11:33;;;;;;;;;;;10.40;99.90;;;;;;8277427;28;19918;-64
2021/05/01 07:15:34;;;;;;;;;;;10.50;99.90;;;;;;8277540;28;20382;-63
2021/05/01 07:19:34;;;;;;;;;;;10.80;99.90;;;;;;8279867;28;19909;-63
2021/05/01 07:23:35;;;;;;;;;;;11.00;99.90;;;;;;8278474;28;19913;-63
2021/05/01 07:27:38;;;;;;;;;;;11.10;99.90;;;;;;8279068;28;19918;-64
2021/05/01 07:31:39;;;;;;;;;;;11.20;99.90;;;;;;8285917;28;19909;-63
2021/05/01 07:35:41;;;;;;;;;;;11.00;99.90;;;;;;8290392;28;19906;-64
2021/05/01 07:39:41;;;;;;;;;;;10.80;99.90;;;;;;8280202;28;19911;-64
2021/05/01 07:43:45;;;;;;;;;;;10.80;99.90;;;;;;8266302;28;20300;-64
2021/05/01 07:47:48;;;;;;;;;;;10.90;99.90;;;;;;8263056;28;20303;-63
2021/05/01 07:51:49;;;;;;;;;;;11.00;99.90;;;;;;8273789;28;19933;-63
2021/05/01 07:55:49;;;;;;;;;;;10.80;99.90;;;;;;8277964;28;20030;-64
2021/05/01 07:59:50;;;;;;;;;;;10.60;99.90;;;;;;8271386;28;19909;-63
2021/05/01 08:03:50;;;;;;;;;;;10.20;99.90;;;;;;8273899;28;19909;-63
2021/05/01 08:07:52;;;;;;;;;;;10.00;99.90;;;;;;8258821;28;19925;-63
2021/05/01 08:11:53;;;;;;;;;;;10.10;99.90;;;;;;8275722;28;20487;-63
2021/05/01 08:15:53;;;;;;;;;;;10.20;99.90;;;;;;8272673;28;19913;-63
2021/05/01 08:19:54;;;;;;;;;;;10.30;99.90;;;;;;8272425;28;20383;-63
2021/05/01 08:23:55;;;;;;;;;;;10.40;99.90;;;;;;8278002;28;19945;-63
2021/05/01 08:27:55;;;;;;;;;;;11.20;99.90;;;;;;8273706;28;19914;-63
2021/05/01 08:31:56;;;;;;;;;;;11.20;99.90;;;;;;8277685;28;19909;-63
2021/05/01 08:35:56;;;;;;;;;;;11.40;99.90;;;;;;8290109;28;20288;-63
2021/05/01 08:39:57;;;;;;;;;;;11.80;99.90;;;;;;8281807;28;19952;-64
2021/05/01 08:44:08;;;;;;;;;;;11.80;99.90;;;;;;8271919;28;19964;-64
2021/05/01 08:48:09;;;;;;;;;;;12.20;99.90;;;;;;8290293;28;19913;-64
2021/05/01 08:52:09;;;;;;;;;;;12.50;99.90;;;;;;8294554;28;20515;-64
2021/05/01 08:56:11;;;;;;;;;;;12.30;99.90;;;;;;8279478;28;20403;-64
2021/05/01 09:00:11;;;;;;;;;;;11.90;99.90;;;;;;8277935;28;19916;-63
2021/05/01 09:04:12;;;;;;;;;;;11.70;99.90;;;;;;8275576;28;20500;-64
2021/05/01 09:08:13;;;;;;;;;;;11.90;99.90;;;;;;8273741;28;19920;-64
2021/05/01 09:12:14;;;;;;;;;;;12.00;99.90;;;;;;8265100;28;19960;-64
2021/05/01 09:16:15;;;;;;;;;;;12.10;99.90;;;;;;8275239;28;19917;-64
2021/05/01 09:20:17;;;;;;;;;;;12.30;99.90;;;;;;8286800;28;19964;-64
2021/05/01 09:24:21;;;;;;;;;;;12.50;99.90;;;;;;8277470;28;19917;-64
2021/05/01 09:28:22;;;;;;;;;;;12.60;99.90;;;;;;8274778;28;19913;-64
2021/05/01 09:32:23;;;;;;;;;;;12.50;99.90;;;;;;8280419;28;20388;-64
2021/05/01 09:36:24;;;;;;;;;;;12.30;99.90;;;;;;8270973;28;20373;-64
2021/05/01 09:40:31;;;;;;;;;;;12.30;99.90;;;;;;8264753;28;19906;-64
2021/05/01 09:44:31;;;;;;;;;;;12.40;99.90;;;;;;8264596;28;19910;-64
2021/05/01 09:48:32;;;;;;;;;;;12.40;99.90;;;;;;8263918;28;19983;-64
2021/05/01 09:52:32;;;;;;;;;;;12.40;99.90;;;;;;8279709;28;19916;-64
2021/05/01 09:56:33;;;;;;;;;;;12.40;99.90;;;;;;8279204;28;19942;-64
2021/05/01 10:00:33;;;;;;;;;;;12.70;99.90;;;;;;8284900;28;19918;-64
2021/05/01 10:04:34;;;;;;;;;;;12.60;99.90;;;;;;8272692;28;19949;-64
2021/05/01 10:08:35;;;;;;;;;;;12.20;99.90;;;;;;8273496;28;19918;-64
2021/05/01 10:12:40;;;;;;;;;;;12.20;99.90;;;;;;8275099;28;19965;-64
2021/05/01 10:16:51;;;;;;;;;;;12.30;99.90;;;;;;8277374;28;19910;-64
2021/05/01 10:20:52;;;;;;;;;;;12.60;99.90;;;;;;8279421;28;20551;-64
2021/05/01 10:24:53;;;;;;;;;;;12.70;99.90;;;;;;8291815;28;20056;-64
2021/05/01 10:28:58;;;;;;;;;;;12.00;99.90;;;;;;8262816;28;19920;-64
2021/05/01 10:33:08;;;;;;;;;;;11.70;99.90;;;;;;8261513;28;19921;-64
2021/05/01 10:37:09;;;;;;;;;;;11.40;99.90;;;;;;8262074;28;20423;-64
2021/05/01 10:41:17;;;;;;;;;;;11.30;99.90;;;;;;8278894;28;19921;-64
2021/05/01 10:45:26;;;;;;;;;;;11.20;99.90;;;;;;8281618;28;20299;-64
2021/05/01 10:49:32;;;;;;;;;;;11.50;99.90;;;;;;8285300;28;19995;-64
2021/05/01 10:53:33;;;;;;;;;;;11.60;99.90;;;;;;8287137;28;20013;-64
2021/05/01 10:57:35;;;;;;;;;;;12.00;99.90;;;;;;8268639;28;19917;-64
2021/05/01 11:01:43;;;;;;;;;;;12.20;99.90;;;;;;8274936;28;19914;-64
2021/05/01 11:05:52;;;;;;;;;;;12.50;99.90;;;;;;8419522;28;19916;-64
2021/05/01 11:10:01;;;;;;;;;;;12.40;99.90;;;;;;8410488;28;19917;-65
2021/05/01 11:14:13;;;;;;;;;;;12.40;99.90;;;;;;8383204;28;20547;-65
2021/05/01 11:18:18;;;;;;;;;;;12.40;99.90;;;;;;8383762;28;19936;-65
2021/05/01 11:22:20;;;;;;;;;;;12.40;99.90;;;;;;8384821;28;19916;-65
2021/05/01 11:26:22;;;;;;;;;;;12.20;99.90;;;;;;8385932;28;19913;-65
2021/05/01 11:30:24;;;;;;;;;;;12.10;99.90;;;;;;8383102;28;19913;-65
2021/05/01 11:34:28;;;;;;;;;;;12.00;99.90;;;;;;8402014;28;20345;-65
2021/05/01 11:38:29;;;;;;;;;;;12.00;99.90;;;;;;8385228;28;19913;-65
2021/05/01 11:42:29;;;;;;;;;;;11.90;99.90;;;;;;8385189;28;20314;-65
2021/05/01 11:46:31;;;;;;;;;;;11.90;99.90;;;;;;8383572;28;20485;-65
2021/05/01 11:50:36;;;;;;;;;;;12.20;99.90;;;;;;8380407;28;19921;-65
2021/05/01 11:54:39;;;;;;;;;;;12.70;99.90;;;;;;8379916;28;20326;-65
2021/05/01 11:58:41;;;;;;;;;;;12.90;99.90;;;;;;8382865;28;19939;-65
2021/05/01 12:02:43;;;;;;;;;;;12.40;99.90;;;;;;8391024;28;20528;-65
2021/05/01 12:06:47;;;;;;;;;;;12.50;99.90;;;;;;8416183;28;20264;-65
2021/05/01 12:10:49;;;;;;;;;;;12.10;99.90;;;;;;8398016;28;20383;-65
2021/05/01 12:15:00;;;;;;;;;;;11.80;99.90;;;;;;8408871;28;19922;-65
2021/05/01 12:19:00;;;;;;;;;;;12.00;99.90;;;;;;8396931;28;19916;-65
2021/05/01 12:23:08;;;;;;;;;;;11.90;99.90;;;;;;8376865;28;19916;-65
2021/05/01 12:27:09;;;;;;;;;;;11.90;99.90;;;;;;8393520;28;20289;-65
2021/05/01 12:31:09;;;;;;;;;;;11.80;99.90;;;;;;8386564;28;19969;-65
2021/05/01 12:35:10;;;;;;;;;;;10.80;99.90;;;;;;8391290;28;19912;-65
2021/05/01 12:39:11;;;;;;;;;;;10.60;99.90;;;;;;8391454;28;19923;-64
2021/05/01 12:43:29;;;;;;;;;;;10.90;99.90;;;;;;8385264;28;19916;-64
2021/05/01 12:47:37;;;;;;;;;;;10.90;99.90;;;;;;8392172;28;20649;-65
2021/05/01 12:51:51;;;;;;;;;;;11.10;99.90;;;;;;8390599;28;19920;-66
2021/05/01 12:56:10;;;;;;;;;;;11.40;99.90;;;;;;8373218;28;19916;-65
2021/05/01 13:00:24;;;;;;;;;;;11.60;99.90;;;;;;8391481;28;19912;-64
2021/05/01 13:04:26;;;;;;;;;;;11.60;99.90;;;;;;8383001;28;19924;-64
2021/05/01 13:08:27;;;;;;;;;;;11.60;99.90;;;;;;8372091;28;19913;-65
2021/05/01 13:12:28;;;;;;;;;;;11.70;99.90;;;;;;8372501;28;19955;-65
2021/05/01 13:16:28;;;;;;;;;;;11.70;99.90;;;;;;8371430;28;19912;-65
2021/05/01 13:20:29;;;;;;;;;;;11.50;99.90;;;;;;8374203;28;20007;-65
2021/05/01 13:24:31;;;;;;;;;;;11.30;99.90;;;;;;8393454;28;19939;-64
2021/05/01 13:28:34;;;;;;;;;;;10.90;99.90;;;;;;8392792;28;20263;-65
2021/05/01 13:32:36;;;;;;;;;;;10.90;99.90;;;;;;8392669;28;20052;-65
2021/05/01 13:36:36;;;;;;;;;;;10.90;99.90;;;;;;8394448;28;20287;-65
2021/05/01 13:40:40;;;;;;;;;;;10.80;99.90;;;;;;8394228;28;19909;-65
2021/05/01 13:44:51;;;;;;;;;;;10.60;99.90;;;;;;8393786;28;20310;-65
2021/05/01 13:48:53;;;;;;;;;;;10.60;99.90;;;;;;8394093;28;19916;-66
2021/05/01 13:53:00;;;;;;;;;;;10.50;99.90;;;;;;8393532;28;19919;-65
2021/05/01 13:57:09;;;;;;;;;;;10.60;99.90;;;;;;8393360;28;20371;-66
2021/05/01 14:01:09;;;;;;;;;;;10.70;99.90;;;;;;8393708;28;19915;-66
2021/05/01 14:05:10;;;;;;;;;;;10.60;99.90;;;;;;8392923;28;19968;-65
2021/05/01 14:09:11;;;;;;;;;;;10.40;99.90;;;;;;8393100;28;19908;-65
2021/05/01 14:13:13;;;;;;;;;;;10.40;99.90;;;;;;8392564;28;19983;-65
2021/05/01 14:17:13;;;;;;;;;;;10.20;99.90;;;;;;8392574;28;19908;-65
2021/05/01 14:21:14;;;;;;;;;;;10.20;99.90;;;;;;8392939;28;19954;-65
2021/05/01 14:25:15;;;;;;;;;;;10.20;99.90;;;;;;8392455;28;19924;-64
2021/05/01 14:29:16;;;;;;;;;;;10.00;99.90;;;;;;8379656;28;20007;-64
2021/05/01 14:33:24;;;;;;;;;;;10.00;99.90;;;;;;8397243;28;20460;-64
2021/05/01 14:37:25;;;;;;;;;;;9.90;99.90;;;;;;8374317;28;19909;-64
2021/05/01 14:41:26;;;;;;;;;;;9.80;99.90;;;;;;8392454;28;19944;-64
2021/05/01 14:45:27;;;;;;;;;;;9.90;99.90;;;;;;8392027;28;19919;-64
2021/05/01 14:49:35;;;;;;;;;;;9.70;99.90;;;;;;8392410;28;19934;-64
2021/05/01 14:53:36;;;;;;;;;;;9.80;99.90;;;;;;8390499;28;19908;-64
2021/05/01 14:57:37;;;;;;;;;;;9.80;99.90;;;;;;8409017;28;19919;-64
2021/05/01 15:01:38;;;;;;;;;;;9.80;99.90;;;;;;8414873;28;19912;-64
2021/05/01 15:05:39;;;;;;;;;;;9.60;99.90;;;;;;8391724;28;20390;-64
2021/05/01 15:09:40;;;;;;;;;;;9.60;99.90;;;;;;8391721;28;19909;-64
2021/05/01 15:13:40;;;;;;;;;;;9.70;99.90;;;;;;8391761;28;19928;-64
2021/05/01 15:17:51;;;;;;;;;;;9.70;99.90;;;;;;8392005;28;19908;-64
2021/05/01 15:21:58;;;;;;;;;;;9.50;99.90;;;;;;8391953;28;19909;-64
2021/05/01 15:26:00;;;;;;;;;;;9.30;99.90;;;;;;8391493;28;20555;-64
2021/05/01 15:30:19;;;;;;;;;;;9.10;99.90;;;;;;8391459;28;19912;-64
2021/05/01 15:34:20;;;;;;;;;;;9.20;99.90;;;;;;8391606;28;19978;-64
2021/05/01 15:38:20;;;;;;;;;;;9.40;99.90;;;;;;8391664;28;19912;-64
2021/05/01 15:42:21;;;;;;;;;;;9.30;99.90;;;;;;8391377;28;19916;-63
2021/05/01 15:46:21;;;;;;;;;;;9.30;99.90;;;;;;8391609;28;19915;-64
2021/05/01 15:50:22;;;;;;;;;;;9.00;99.90;;;;;;8393996;28;19957;-64
2021/05/01 15:54:23;;;;;;;;;;;9.00;99.90;;;;;;8397614;28;19958;-65
2021/05/01 15:58:23;;;;;;;;;;;8.90;99.90;;;;;;8416513;28;19908;-64
2021/05/01 16:02:24;;;;;;;;;;;9.00;99.90;;;;;;8408810;28;19966;-64
2021/05/01 16:06:24;;;;;;;;;;;8.80;99.90;;;;;;8419422;28;19995;-64
2021/05/01 16:10:26;;;;;;;;;;;8.70;99.90;;;;;;8404764;28;19919;-64
2021/05/01 16:14:26;;;;;;;;;;;8.70;99.90;;;;;;8397159;28;19961;-64
2021/05/01 16:18:27;;;;;;;;;;;8.80;99.90;;;;;;8397218;28;20003;-65
2021/05/01 16:22:28;;;;;;;;;;;8.80;99.90;;;;;;8396135;28;19978;-64
2021/05/01 16:26:28;;;;;;;;;;;8.80;99.90;;;;;;8397133;28;20371;-64
2021/05/01 16:30:29;;;;;;;;;;;8.70;99.90;;;;;;8394596;28;19912;-64
2021/05/01 16:34:29;;;;;;;;;;;8.70;99.90;;;;;;8392973;28;19939;-64
2021/05/01 16:38:30;;;;;;;;;;;8.60;99.90;;;;;;8394387;28;19916;-64
2021/05/01 16:42:30;;;;;;;;;;;8.50;99.90;;;;;;8388394;28;19954;-64
2021/05/01 16:46:32;;;;;;;;;;;8.50;99.90;;;;;;8390937;28;20378;-64
2021/05/01 16:50:33;;;;;;;;;;;8.60;99.90;;;;;;8391503;28;20302;-64
2021/05/01 16:54:33;;;;;;;;;;;8.60;99.90;;;;;;8389648;28;19923;-64
2021/05/01 16:58:34;;;;;;;;;;;8.60;99.90;;;;;;8372980;28;19913;-64
2021/05/01 17:02:34;;;;;;;;;;;8.60;99.90;;;;;;8389975;28;19982;-64
2021/05/01 17:06:35;;;;;;;;;;;8.60;99.90;;;;;;8390326;28;19917;-64
2021/05/01 17:10:37;;;;;;;;;;;8.70;99.90;;;;;;8372350;28;20502;-64
2021/05/01 17:14:38;;;;;;;;;;;8.80;99.90;;;;;;8389831;28;19920;-64
2021/05/01 17:18:39;;;;;;;;;;;8.60;99.90;;;;;;8390380;28;19920;-64
2021/05/01 17:22:39;;;;;;;;;;;8.50;99.90;;;;;;8389742;28;19960;-64
2021/05/01 17:26:40;;;;;;;;;;;8.30;99.90;;;;;;8389862;28;19916;-64
2021/05/01 17:30:40;;;;;;;;;;;8.40;99.90;;;;;;8388820;28;19940;-64
2021/05/01 17:34:41;;;;;;;;;;;8.30;99.90;;;;;;8389238;28;19913;-64
2021/05/01 17:38:41;;;;;;;;;;;8.20;99.90;;;;;;8390786;28;20309;-64
2021/05/01 17:42:42;;;;;;;;;;;8.30;99.90;;;;;;8357970;28;20367;-64
2021/05/01 17:46:42;;;;;;;;;;;8.30;99.90;;;;;;8369047;28;19908;-63
2021/05/01 17:50:43;;;;;;;;;;;8.30;99.90;;;;;;8405184;28;19912;-64
2021/05/01 17:54:43;;;;;;;;;;;8.30;99.90;;;;;;8372103;28;19913;-64
2021/05/01 17:58:44;;;;;;;;;;;8.40;99.90;;;;;;8389678;28;19983;-64
2021/05/01 18:02:45;;;;;;;;;;;8.30;99.90;;;;;;8389226;28;19920;-64
2021/05/01 18:06:46;;;;;;;;;;;8.20;99.90;;;;;;8389224;28;19919;-64
2021/05/01 18:10:46;;;;;;;;;;;8.20;99.90;;;;;;8370120;28;19916;-65
2021/05/01 18:14:49;;;;;;;;;;;8.10;99.90;;;;;;8387851;28;19916;-64
2021/05/01 18:18:50;;;;;;;;;;;8.00;99.90;;;;;;8388102;28;19916;-64
2021/05/01 18:22:50;;;;;;;;;;;8.00;99.90;;;;;;8387288;28;20489;-64
2021/05/01 18:26:51;;;;;;;;;;;8.00;99.90;;;;;;8388419;28;19915;-64
2021/05/01 18:30:52;;;;;;;;;;;8.00;99.90;;;;;;8387827;28;19970;-64
2021/05/01 18:34:52;;;;;;;;;;;8.10;99.90;;;;;;8361001;28;20287;-64
2021/05/01 18:38:53;;;;;;;;;;;8.00;99.90;;;;;;8387018;28;19920;-64
2021/05/01 18:42:53;;;;;;;;;;;7.80;99.90;;;;;;8383944;28;19971;-64
2021/05/01 18:46:54;;;;;;;;;;;7.80;99.90;;;;;;8385725;28;19908;-64
2021/05/01 18:50:54;;;;;;;;;;;7.70;99.90;;;;;;8386642;28;19915;-64
2021/05/01 18:54:55;;;;;;;;;;;7.70;99.90;;;;;;8385123;28;20015;-64
2021/05/01 18:58:55;;;;;;;;;;;7.60;99.90;;;;;;8384534;28;19959;-64
2021/05/01 19:02:58;;;;;;;;;;;7.80;99.90;;;;;;8384836;28;19920;-64
2021/05/01 19:06:58;;;;;;;;;;;7.70;99.90;;;;;;8385838;28;19968;-64
2021/05/01 19:10:59;;;;;;;;;;;7.60;99.90;;;;;;8385571;28;19924;-64
2021/05/01 19:15:02;;;;;;;;;;;7.50;99.90;;;;;;8366379;28;19970;-64
2021/05/01 19:19:04;;;;;;;;;;;7.50;99.90;;;;;;8383310;28;19923;-64
2021/05/01 19:23:05;;;;;;;;;;;7.40;99.90;;;;;;8384775;28;20345;-64
2021/05/01 19:27:06;;;;;;;;;;;7.30;99.90;;;;;;8391426;28;19922;-64
2021/05/01 19:31:06;;;;;;;;;;;7.20;99.90;;;;;;8391630;28;20757;-64
2021/05/01 19:35:08;;;;;;;;;;;7.10;99.90;;;;;;8391755;28;19919;-64
2021/05/01 19:39:09;;;;;;;;;;;7.10;99.90;;;;;;8406731;28;19921;-63
2021/05/01 19:43:10;;;;;;;;;;;7.00;99.90;;;;;;8391083;28;19916;-63
2021/05/01 19:47:11;;;;;;;;;;;7.10;99.90;;;;;;8391140;28;19920;-64
2021/05/01 19:51:11;;;;;;;;;;;7.00;99.90;;;;;;8407131;28;19960;-64
2021/05/01 19:55:13;;;;;;;;;;;7.10;99.90;;;;;;8390663;28;20451;-63
2021/05/01 19:59:13;;;;;;;;;;;7.20;99.90;;;;;;8391240;28;19916;-64
2021/05/01 20:03:14;;;;;;;;;;;7.20;99.90;;;;;;8390360;28;20008;-64
2021/05/01 20:07:14;;;;;;;;;;;7.20;99.90;;;;;;8373141;28;19912;-64
2021/05/01 20:11:16;;;;;;;;;;;7.40;99.90;;;;;;8390659;28;19920;-64
2021/05/01 20:15:16;;;;;;;;;;;7.30;99.90;;;;;;8371431;28;20007;-64
2021/05/01 20:19:17;;;;;;;;;;;7.20;99.90;;;;;;8391191;28;19920;-64
2021/05/01 20:23:17;;;;;;;;;;;7.20;99.90;;;;;;8372141;28;19924;-64
2021/05/01 20:27:18;;;;;;;;;;;7.30;99.90;;;;;;8391252;28;19986;-64
2021/05/01 20:31:19;;;;;;;;;;;7.30;99.90;;;;;;8390094;28;19921;-63
2021/05/01 20:35:19;;;;;;;;;;;7.30;99.90;;;;;;8388767;28;19912;-63
2021/05/01 20:39:20;;;;;;;;;;;7.30;99.90;;;;;;8388405;28;19912;-63
2021/05/01 20:43:21;;;;;;;;;;;7.30;99.90;;;;;;8389584;28;19920;-64
2021/05/01 20:47:21;;;;;;;;;;;7.40;99.90;;;;;;8389405;28;19916;-64
2021/05/01 20:51:22;;;;;;;;;;;7.30;99.90;;;;;;8389888;28;19912;-63
2021/05/01 20:55:22;;;;;;;;;;;7.40;99.90;;;;;;8388859;28;19912;-63
2021/05/01 20:59:23;;;;;;;;;;;7.40;99.90;;;;;;8388335;28;19912;-64
2021/05/01 21:03:23;;;;;;;;;;;7.30;99.90;;;;;;8386648;28;19921;-64
2021/05/01 21:07:24;;;;;;;;;;;7.30;99.90;;;;;;8390518;28;19921;-65
2021/05/01 21:11:24;;;;;;;;;;;7.30;99.90;;;;;;8390106;28;19912;-64
2021/05/01 21:15:25;;;;;;;;;;;7.20;99.90;;;;;;8390617;28;19920;-63
2021/05/01 21:19:25;;;;;;;;;;;7.10;99.90;;;;;;8391190;28;19966;-64
2021/05/01 21:23:26;;;;;;;;;;;7.10;99.90;;;;;;8390327;28;19916;-63
2021/05/01 21:27:27;;;;;;;;;;;7.10;99.90;;;;;;8390612;28;20458;-64
2021/05/01 21:31:27;;;;;;;;;;;7.10;99.90;;;;;;8371880;28;19913;-63
2021/05/01 21:35:28;;;;;;;;;;;7.10;99.90;;;;;;8389933;28;20492;-64
2021/05/01 21:39:28;;;;;;;;;;;7.10;99.90;;;;;;8376113;28;19931;-63
2021/05/01 21:43:29;;;;;;;;;;;7.10;99.90;;;;;;8396972;22;19925;-63
2021/05/01 21:47:29;;;;;;;;;;;7.10;99.90;;;;;;8359740;28;19952;-63
2021/05/01 21:51:30;;;;;;;;;;;7.10;99.90;;;;;;8360813;28;19969;-63
2021/05/01 21:55:30;;;;;;;;;;;7.10;99.90;;;;;;8360689;28;20010;-63
2021/05/01 21:59:32;;;;;;;;;;;7.10;99.90;;;;;;8360315;28;19909;-63
2021/05/01 22:03:33;;;;;;;;;;;7.00;99.90;;;;;;8360174;28;19999;-63
2021/05/01 22:07:34;;;;;;;;;;;6.80;99.90;;;;;;8360732;28;19955;-64
2021/05/01 22:11:34;;;;;;;;;;;6.80;99.90;;;;;;8360854;28;19916;-64
2021/05/01 22:15:35;;;;;;;;;;;6.80;99.90;;;;;;8360136;28;19945;-64
2021/05/01 22:19:42;;;;;;;;;;;6.80;99.90;;;;;;8358983;28;19909;-64
2021/05/01 22:28:03;;;;;;;;;;;6.60;99.90;;;;;;8353673;28;19923;-64
2021/05/01 22:32:04;;;;;;;;;;;6.70;99.90;;;;;;8370321;28;19909;-64
2021/05/01 22:36:05;;;;;;;;;;;6.80;99.90;;;;;;8359924;28;20362;-64
2021/05/01 22:40:05;;;;;;;;;;;6.70;99.90;;;;;;8358924;28;19908;-64
2021/05/01 22:44:06;;;;;;;;;;;6.80;99.90;;;;;;8359486;28;19943;-64
2021/05/01 22:48:07;;;;;;;;;;;6.60;99.90;;;;;;8359981;28;19953;-64
2021/05/01 22:52:09;;;;;;;;;;;6.50;99.90;;;;;;8359569;28;19970;-64
2021/05/01 22:56:11;;;;;;;;;;;6.50;99.90;;;;;;8358225;28;19909;-64
2021/05/01 23:00:13;;;;;;;;;;;6.60;99.90;;;;;;8358000;28;20372;-65
2021/05/01 23:04:15;;;;;;;;;;;6.60;99.90;;;;;;8358708;28;20655;-65
2021/05/01 23:08:16;;;;;;;;;;;6.50;99.90;;;;;;8359154;28;20390;-65
2021/05/01 23:12:16;;;;;;;;;;;6.60;99.90;;;;;;8358762;28;19909;-65
2021/05/01 23:16:19;;;;;;;;;;;6.60;99.90;;;;;;8358910;28;19978;-65
2021/05/01 23:20:21;;;;;;;;;;;6.60;99.90;;;;;;8357882;28;20413;-65
2021/05/01 23:24:21;;;;;;;;;;;6.70;99.90;;;;;;8357112;28;19952;-65
2021/05/01 23:28:22;;;;;;;;;;;6.70;99.90;;;;;;8358014;28;19913;-64
2021/05/01 23:32:24;;;;;;;;;;;6.70;99.90;;;;;;8358616;28;19940;-64
2021/05/01 23:36:25;;;;;;;;;;;6.80;99.90;;;;;;8358666;28;19916;-64
2021/05/01 23:40:25;;;;;;;;;;;6.70;99.90;;;;;;8358812;28;19916;-64
2021/05/01 23:44:25;;;;;;;;;;;6.70;99.90;;;;;;8356756;28;19956;-64